createdAt,value
2019-01-20T00:01:43.241Z,60.90
2019-01-20T00:05:46.679Z,61.50
2019-01-20T00:09:50.100Z,61.20
2019-01-20T00:13:53.551Z,61.20
2019-01-20T00:17:56.980Z,61.10
2019-01-20T00:22:00.502Z,61.30
2019-01-20T00:26:03.951Z,61.40
2019-01-20T00:30:10.788Z,61.30
2019-01-20T00:34:14.257Z,61.40
2019-01-20T00:38:17.744Z,61.00
2019-01-20T00:42:21.196Z,61.00
2019-01-20T00:46:24.637Z,60.50
2019-01-20T00:50:28.059Z,61.10
2019-01-20T00:54:31.508Z,61.10
2019-01-20T00:58:34.949Z,61.10
2019-01-20T01:02:38.396Z,61.30
2019-01-20T01:06:41.829Z,61.00
2019-01-20T01:10:45.264Z,60.80
2019-01-20T01:14:48.704Z,60.90
2019-01-20T01:18:52.153Z,60.80
2019-01-20T01:22:55.613Z,60.80
2019-01-20T01:26:59.144Z,61.00
2019-01-20T01:31:02.681Z,61.00
2019-01-20T01:35:07.749Z,61.30
2019-01-20T01:39:11.184Z,61.10
2019-01-20T01:43:14.638Z,61.00
2019-01-20T01:47:18.066Z,60.90
2019-01-20T01:51:21.504Z,60.60
2019-01-20T01:55:24.944Z,60.80
2019-01-20T01:59:28.384Z,61.00
2019-01-20T02:03:31.807Z,60.80
2019-01-20T02:07:35.263Z,60.60
2019-01-20T02:11:38.716Z,60.40
2019-01-20T02:15:42.162Z,59.80
2019-01-20T02:19:45.593Z,59.80
2019-01-20T02:23:49.015Z,60.30
2019-01-20T02:27:54.110Z,59.90
2019-01-20T02:31:57.552Z,60.30
2019-01-20T02:36:01.001Z,60.30
2019-01-20T02:40:07.578Z,60.60
2019-01-20T02:44:11.006Z,60.20
2019-01-20T02:48:14.448Z,60.20
2019-01-20T02:52:17.889Z,60.20
2019-01-20T02:56:21.327Z,60.40
2019-01-20T03:00:25.105Z,60.40
2019-01-20T03:04:28.544Z,60.30
2019-01-20T03:08:31.980Z,60.30
2019-01-20T03:12:35.421Z,60.20
2019-01-20T03:16:38.869Z,59.70
2019-01-20T03:20:42.301Z,60.20
2019-01-20T03:24:45.741Z,59.70
2019-01-20T03:28:49.187Z,60.10
2019-01-20T03:32:52.628Z,60.00
2019-01-20T03:36:56.077Z,60.00
2019-01-20T03:40:59.508Z,60.30
2019-01-20T03:45:04.120Z,60.20
2019-01-20T03:49:07.565Z,60.00
2019-01-20T03:53:11.030Z,59.90
2019-01-20T03:57:14.478Z,60.30
2019-01-20T04:01:17.904Z,60.50
2019-01-20T04:05:21.513Z,60.50
2019-01-20T04:09:24.968Z,60.10
2019-01-20T04:13:47.768Z,60.10
2019-01-20T04:17:51.212Z,59.70
2019-01-20T04:21:54.645Z,60.50
2019-01-20T04:25:58.087Z,59.70
2019-01-20T04:30:01.521Z,60.20
2019-01-20T04:34:05.031Z,59.40
2019-01-20T04:38:08.484Z,59.50
2019-01-20T04:42:11.918Z,59.60
2019-01-20T04:46:15.360Z,59.90
2019-01-20T04:50:23.636Z,59.80
2019-01-20T04:54:27.155Z,59.70
2019-01-20T04:58:30.675Z,59.70
2019-01-20T05:02:34.169Z,60.30
2019-01-20T05:06:37.606Z,60.40
2019-01-20T05:10:41.053Z,59.60
2019-01-20T05:14:44.508Z,60.20
2019-01-20T05:18:47.937Z,60.00
2019-01-20T05:22:51.383Z,59.60
2019-01-20T05:26:54.837Z,59.50
2019-01-20T05:30:58.363Z,59.40
2019-01-20T05:35:01.789Z,59.90
2019-01-20T05:39:07.369Z,60.00
2019-01-20T05:43:10.806Z,59.90
2019-01-20T05:47:14.252Z,59.90
2019-01-20T05:51:17.694Z,59.80
2019-01-20T05:55:21.121Z,59.80
2019-01-20T05:59:24.556Z,59.30
2019-01-20T06:03:27.996Z,59.80
2019-01-20T06:07:31.437Z,59.60
2019-01-20T06:11:34.872Z,60.10
2019-01-20T06:15:38.292Z,59.90
2019-01-20T06:19:41.813Z,60.00
2019-01-20T06:23:45.267Z,59.30
2019-01-20T06:27:48.703Z,59.40
2019-01-20T06:31:52.128Z,59.80
2019-01-20T06:35:55.567Z,59.40
2019-01-20T06:39:59.087Z,59.90
2019-01-20T06:47:22.976Z,59.70
2019-01-20T06:51:26.415Z,59.90
2019-01-20T06:55:29.865Z,59.40
2019-01-20T06:59:33.313Z,59.70
2019-01-20T07:03:36.757Z,59.80
2019-01-20T07:07:41.347Z,59.60
2019-01-20T07:11:44.799Z,60.10
2019-01-20T07:15:48.244Z,60.00
2019-01-20T07:19:51.674Z,60.50
2019-01-20T07:23:55.117Z,59.70
2019-01-20T07:27:58.544Z,60.30
2019-01-20T07:32:01.984Z,60.20
2019-01-20T07:36:05.436Z,60.30
2019-01-20T07:40:12.326Z,60.60
2019-01-20T07:44:15.757Z,60.70
2019-01-20T07:48:19.195Z,60.00
2019-01-20T07:52:22.643Z,60.50
2019-01-20T07:56:26.083Z,60.30
2019-01-20T08:00:29.516Z,60.20
2019-01-20T08:04:32.972Z,60.30
2019-01-20T08:08:36.413Z,60.10
2019-01-20T08:12:39.872Z,60.30
2019-01-20T08:16:43.337Z,60.20
2019-01-20T08:20:46.888Z,59.70
2019-01-20T08:24:50.329Z,60.20
2019-01-20T08:28:53.759Z,59.80
2019-01-20T08:32:57.256Z,60.50
2019-01-20T08:37:00.705Z,60.60
2019-01-20T08:41:04.625Z,60.10
2019-01-20T08:45:11.140Z,59.90
2019-01-20T08:49:14.604Z,60.50
2019-01-20T08:53:18.057Z,59.80
2019-01-20T08:57:21.503Z,60.50
2019-01-20T09:01:25.023Z,60.60
2019-01-20T09:05:28.448Z,60.10
2019-01-20T09:09:31.894Z,60.80
2019-01-20T09:13:39.867Z,60.70
2019-01-20T09:17:40.897Z,59.60
2019-01-20T09:21:44.582Z,59.30
2019-01-20T09:25:48.004Z,60.10
2019-01-20T09:29:51.454Z,60.70
2019-01-20T09:33:54.968Z,60.40
2019-01-20T09:37:58.429Z,59.20
2019-01-20T09:42:06.019Z,59.70
2019-01-20T09:46:09.447Z,59.90
2019-01-20T09:50:13.026Z,59.90
2019-01-20T09:54:16.468Z,59.80
2019-01-20T09:58:19.907Z,60.20
2019-01-20T10:02:23.356Z,60.00
2019-01-20T10:06:26.797Z,59.70
2019-01-20T10:10:30.245Z,60.00
2019-01-20T10:14:33.684Z,59.60
2019-01-20T10:18:37.129Z,59.60
2019-01-20T10:22:40.568Z,59.60
2019-01-20T10:26:44.006Z,59.80
2019-01-20T10:30:47.453Z,60.10
2019-01-20T10:34:52.540Z,59.80
2019-01-20T10:38:56.026Z,59.90
2019-01-20T10:42:59.493Z,59.80
2019-01-20T10:47:03.400Z,59.70
2019-01-20T10:51:06.832Z,59.20
2019-01-20T10:55:10.336Z,59.00
2019-01-20T10:59:13.769Z,58.60
2019-01-20T11:03:17.380Z,58.60
2019-01-20T11:07:20.821Z,58.40
2019-01-20T11:11:24.256Z,58.20
2019-01-20T11:15:27.707Z,57.50
2019-01-20T11:19:31.128Z,57.30
2019-01-20T11:23:34.952Z,57.80
2019-01-20T11:27:38.397Z,57.50
2019-01-20T11:31:41.828Z,57.30
2019-01-20T11:35:45.272Z,57.10
2019-01-20T11:39:48.707Z,57.10
2019-01-20T11:43:52.127Z,56.50
2019-01-20T11:47:55.560Z,56.90
2019-01-20T11:51:58.996Z,56.90
2019-01-20T11:56:02.897Z,56.50
2019-01-20T12:00:09.392Z,56.20
2019-01-20T12:04:12.830Z,56.30
2019-01-20T12:08:16.268Z,56.20
2019-01-20T12:12:19.701Z,56.10
2019-01-20T12:16:23.136Z,55.90
2019-01-20T12:20:26.565Z,55.90
2019-01-20T12:24:29.998Z,55.90
2019-01-20T12:28:33.473Z,55.70
2019-01-20T12:32:36.918Z,55.70
2019-01-20T12:36:40.350Z,55.60
2019-01-20T12:40:45.733Z,55.60
2019-01-20T12:44:49.173Z,55.50
2019-01-20T12:48:52.628Z,55.40
2019-01-20T12:52:56.060Z,55.20
2019-01-20T12:56:59.481Z,55.40
2019-01-20T13:01:02.913Z,55.40
2019-01-20T13:05:07.388Z,55.50
2019-01-20T13:09:10.913Z,55.50
2019-01-20T13:13:14.356Z,55.30
2019-01-20T13:17:17.763Z,55.30
2019-01-20T13:21:21.210Z,55.40
2019-01-20T13:25:26.985Z,55.40
2019-01-20T13:29:30.435Z,55.30
2019-01-20T13:33:33.964Z,55.50
2019-01-20T13:37:40.315Z,55.20
2019-01-20T13:41:43.820Z,55.80
2019-01-20T13:45:47.253Z,55.70
2019-01-20T13:49:50.701Z,55.60
2019-01-20T13:53:54.684Z,55.50
2019-01-20T13:57:58.108Z,55.50
2019-01-20T14:02:02.204Z,55.70
2019-01-20T14:06:05.791Z,55.40
2019-01-20T14:10:18.373Z,55.30
2019-01-20T14:14:21.892Z,55.50
2019-01-20T14:18:25.316Z,55.50
2019-01-20T14:22:28.752Z,55.40
2019-01-20T14:26:32.200Z,55.40
2019-01-20T14:30:35.639Z,55.30
2019-01-20T14:34:39.068Z,55.20
2019-01-20T14:38:42.632Z,55.20
2019-01-20T14:42:46.139Z,55.10
2019-01-20T14:46:49.577Z,54.90
2019-01-20T14:50:53.016Z,54.90
2019-01-20T14:54:56.440Z,54.90
2019-01-20T14:58:59.881Z,55.00
2019-01-20T15:03:03.803Z,55.10
2019-01-20T15:07:07.231Z,54.90
2019-01-20T15:11:10.741Z,55.30
2019-01-20T15:15:29.301Z,55.30
2019-01-20T15:19:32.736Z,55.50
2019-01-20T15:23:36.163Z,55.50
2019-01-20T15:27:39.628Z,55.10
2019-01-20T15:31:43.059Z,55.50
2019-01-20T15:35:46.494Z,55.60
2019-01-20T15:39:49.931Z,55.60
2019-01-20T15:43:53.396Z,55.70
2019-01-20T15:47:56.826Z,55.70
2019-01-20T15:52:00.600Z,55.40
2019-01-20T15:56:04.088Z,56.00
2019-01-20T16:00:19.264Z,56.00
2019-01-20T16:04:24.155Z,55.70
2019-01-20T16:08:28.157Z,55.90
2019-01-20T16:12:31.623Z,56.50
2019-01-20T16:16:35.041Z,56.60
2019-01-20T16:20:38.498Z,56.50
2019-01-20T16:24:41.940Z,56.60
2019-01-20T16:28:45.436Z,57.30
2019-01-20T16:32:48.934Z,57.00
2019-01-20T16:36:52.381Z,57.60
2019-01-20T16:40:55.829Z,57.30
2019-01-20T16:44:59.281Z,57.80
2019-01-20T16:49:02.728Z,57.90
2019-01-20T16:53:06.152Z,58.00
2019-01-20T16:57:09.605Z,58.00
2019-01-20T17:01:13.041Z,57.90
2019-01-20T17:05:16.507Z,58.10
2019-01-20T17:09:19.964Z,58.10
2019-01-20T17:13:23.471Z,58.20
2019-01-20T17:17:26.923Z,58.70
2019-01-20T17:21:30.372Z,58.30
2019-01-20T17:25:33.808Z,59.00
2019-01-20T17:29:37.245Z,59.00
2019-01-20T17:33:40.709Z,58.80
2019-01-20T17:37:44.254Z,59.30
2019-01-20T17:41:47.743Z,58.90
2019-01-20T17:45:51.185Z,59.60
2019-01-20T17:49:54.614Z,59.30
2019-01-20T17:53:58.053Z,59.80
2019-01-20T17:58:01.499Z,59.90
2019-01-20T18:02:05.010Z,60.00
2019-01-20T18:06:08.588Z,59.60
2019-01-20T18:10:14.178Z,59.50
2019-01-20T18:14:17.620Z,60.00
2019-01-20T18:18:21.106Z,60.20
2019-01-20T18:22:24.554Z,60.00
2019-01-20T18:26:27.997Z,60.60
2019-01-20T18:30:31.967Z,60.50
2019-01-20T18:34:35.433Z,60.60
2019-01-20T18:38:41.172Z,60.90
2019-01-20T18:42:44.620Z,60.70
2019-01-20T18:46:48.050Z,60.20
2019-01-20T18:50:51.494Z,61.00
2019-01-20T18:54:54.967Z,60.40
2019-01-20T18:58:58.417Z,60.40
2019-01-20T19:03:01.857Z,60.20
2019-01-20T19:07:05.288Z,60.40
2019-01-20T19:11:08.761Z,61.20
2019-01-20T19:15:17.458Z,60.40
2019-01-20T19:19:20.901Z,60.50
2019-01-20T19:23:24.364Z,61.10
2019-01-20T19:27:27.864Z,60.70
2019-01-20T19:31:31.313Z,61.30
2019-01-20T19:35:34.756Z,61.30
2019-01-20T19:39:38.209Z,60.60
2019-01-20T19:43:41.712Z,61.00
2019-01-20T19:47:45.303Z,60.80
2019-01-20T19:51:48.766Z,60.70
2019-01-20T19:55:52.205Z,60.80
2019-01-20T19:59:55.662Z,60.80
2019-01-20T20:03:59.087Z,60.80
2019-01-20T20:08:03.235Z,60.80
2019-01-20T20:12:06.739Z,61.60
2019-01-20T20:16:10.184Z,61.70
2019-01-20T20:20:18.863Z,61.90
2019-01-20T20:24:25.481Z,61.80
2019-01-20T20:28:27.576Z,61.60
2019-01-20T20:32:31.049Z,61.00
2019-01-20T20:36:34.510Z,61.20
2019-01-20T20:40:38.090Z,61.20
2019-01-20T20:44:41.538Z,61.40
2019-01-20T20:48:44.979Z,62.10
2019-01-20T20:52:48.430Z,61.20
2019-01-20T20:56:51.893Z,61.60
2019-01-20T21:03:11.687Z,61.50
2019-01-20T21:07:15.132Z,61.30
2019-01-20T21:11:18.587Z,61.60
2019-01-20T21:15:22.038Z,62.00
2019-01-20T21:19:25.476Z,61.40
2019-01-20T21:23:28.913Z,61.80
2019-01-20T21:27:32.390Z,61.90
2019-01-20T21:31:35.875Z,61.30
2019-01-20T21:35:39.422Z,61.20
2019-01-20T21:39:42.868Z,61.30
2019-01-20T21:43:46.329Z,61.30
2019-01-20T21:47:49.812Z,61.10
2019-01-20T21:51:53.275Z,61.10
2019-01-20T21:55:56.740Z,61.50
2019-01-20T22:00:00.238Z,61.40
2019-01-20T22:04:04.074Z,61.40
2019-01-20T22:08:07.525Z,61.30
2019-01-20T22:12:10.990Z,61.60
2019-01-20T22:16:14.515Z,61.70
2019-01-20T22:20:20.378Z,61.70
2019-01-20T22:24:23.866Z,61.60
2019-01-20T22:28:46.653Z,62.30
2019-01-20T22:32:50.101Z,61.70
2019-01-20T22:36:53.527Z,61.70
2019-01-20T22:40:56.988Z,61.60
2019-01-20T22:45:00.519Z,62.20
2019-01-20T22:49:04.064Z,61.70
2019-01-20T22:53:07.525Z,61.80
2019-01-20T22:57:11.020Z,62.10
2019-01-20T23:01:15.536Z,62.50
2019-01-20T23:05:18.994Z,62.60
2019-01-20T23:09:22.444Z,62.70
2019-01-20T23:13:25.891Z,62.20
2019-01-20T23:17:29.311Z,62.90
2019-01-20T23:21:34.305Z,62.90
2019-01-20T23:25:37.732Z,62.20
2019-01-20T23:29:41.178Z,62.70
2019-01-20T23:33:44.611Z,63.00
2019-01-20T23:37:48.120Z,63.10
2019-01-20T23:41:51.568Z,63.10
2019-01-20T23:45:55.008Z,63.80
2019-01-20T23:49:58.444Z,62.70
2019-01-20T23:54:01.892Z,63.20
2019-01-20T23:58:05.498Z,63.00
